createdAt,value
2022-10-01T00:01:14.522Z,9.00
2022-10-01T00:03:42.351Z,9.95
2022-10-01T00:06:13.293Z,8.50
2022-10-01T00:08:42.084Z,8.50
2022-10-01T00:11:12.108Z,9.88
2022-10-01T00:13:40.433Z,9.32
2022-10-01T00:16:11.750Z,9.75
2022-10-01T00:18:40.335Z,9.25
2022-10-01T00:21:08.500Z,10.10
2022-10-01T00:23:36.401Z,9.55
2022-10-01T00:26:12.814Z,11.10
2022-10-01T00:28:40.257Z,12.60
2022-10-01T00:31:10.572Z,10.70
2022-10-01T00:33:38.637Z,9.82
2022-10-01T00:36:07.580Z,9.00
2022-10-01T00:38:35.122Z,10.43
2022-10-01T00:41:02.800Z,9.30
2022-10-01T00:43:32.631Z,9.63
2022-10-01T00:46:07.211Z,8.60
2022-10-01T00:48:44.045Z,8.13
2022-10-01T00:51:14.071Z,9.15
2022-10-01T00:53:42.044Z,8.23
2022-10-01T00:56:09.281Z,8.45
2022-10-01T00:58:36.658Z,8.85
2022-10-01T01:01:04.324Z,8.57
2022-10-01T01:03:31.785Z,8.05
2022-10-01T01:06:00.358Z,8.52
2022-10-01T01:08:28.191Z,8.68
2022-10-01T01:11:04.282Z,8.88
2022-10-01T01:13:37.752Z,9.00
2022-10-01T01:16:12.815Z,9.38
2022-10-01T01:18:50.667Z,8.70
2022-10-01T01:21:29.005Z,8.27
2022-10-01T01:24:34.681Z,9.20
2022-10-01T01:27:26.343Z,9.45
2022-10-01T01:30:04.486Z,9.55
2022-10-01T01:32:39.756Z,8.82
2022-10-01T01:35:11.408Z,10.23
2022-10-01T01:37:50.373Z,9.30
2022-10-01T01:40:19.630Z,9.00
2022-10-01T01:42:49.393Z,10.20
2022-10-01T01:45:22.855Z,10.32
2022-10-01T01:47:55.523Z,10.13
2022-10-01T01:50:29.078Z,9.43
2022-10-01T01:52:56.400Z,8.43
2022-10-01T01:55:25.413Z,8.52
2022-10-01T01:57:53.988Z,8.05
2022-10-01T02:00:23.017Z,9.48
2022-10-01T02:02:52.660Z,8.77
2022-10-01T02:05:23.936Z,8.20
2022-10-01T02:08:12.900Z,10.45
2022-10-01T02:10:59.730Z,9.70
2022-10-01T02:13:39.129Z,9.13
2022-10-01T02:16:33.700Z,9.90
2022-10-01T02:19:04.604Z,8.90
2022-10-01T02:21:38.718Z,9.65
2022-10-01T02:24:14.494Z,10.10
2022-10-01T02:26:43.681Z,11.05
2022-10-01T02:29:14.594Z,12.55
2022-10-01T02:31:44.389Z,9.15
2022-10-01T02:34:19.397Z,14.88
2022-10-01T02:36:49.835Z,10.77
2022-10-01T02:39:20.095Z,11.00
2022-10-01T02:41:50.497Z,15.13
2022-10-01T02:44:23.512Z,13.90
2022-10-01T02:46:56.450Z,12.32
2022-10-01T02:49:27.429Z,16.95
2022-10-01T02:52:07.795Z,10.50
2022-10-01T02:54:40.475Z,9.45
2022-10-01T02:57:23.124Z,11.07
2022-10-01T02:59:50.646Z,12.30
2022-10-01T03:02:20.149Z,11.38
2022-10-01T03:04:48.700Z,18.63
2022-10-01T03:07:16.910Z,10.25
2022-10-01T03:09:44.393Z,10.98
2022-10-01T03:12:12.129Z,12.95
2022-10-01T03:14:39.491Z,11.80
2022-10-01T03:17:07.359Z,14.73
2022-10-01T03:19:36.081Z,9.85
2022-10-01T03:22:03.632Z,9.88
2022-10-01T03:24:31.110Z,9.70
2022-10-01T03:26:58.548Z,13.90
2022-10-01T03:29:26.451Z,12.23
2022-10-01T03:31:54.396Z,9.43
2022-10-01T03:34:21.845Z,16.20
2022-10-01T03:36:52.502Z,13.40
2022-10-01T03:39:19.896Z,10.20
2022-10-01T03:41:47.266Z,18.35
2022-10-01T03:44:14.495Z,13.23
2022-10-01T03:46:41.759Z,13.45
2022-10-01T03:49:08.965Z,16.10
2022-10-01T03:51:37.659Z,10.18
2022-10-01T03:54:08.337Z,12.93
2022-10-01T03:56:35.884Z,13.27
2022-10-01T03:59:03.560Z,16.55
2022-10-01T04:01:31.172Z,16.67
2022-10-01T04:03:59.174Z,14.57
2022-10-01T04:06:26.525Z,17.13
2022-10-01T04:08:53.865Z,20.88
2022-10-01T04:11:22.644Z,22.95
2022-10-01T04:13:49.815Z,26.67
2022-10-01T04:16:17.245Z,21.23
2022-10-01T04:18:44.545Z,18.15
2022-10-01T04:21:12.950Z,25.33
2022-10-01T04:23:40.648Z,26.70
2022-10-01T04:26:08.373Z,30.33
2022-10-01T04:28:37.174Z,22.70
2022-10-01T04:31:23.508Z,20.38
2022-10-01T04:33:51.065Z,27.63
2022-10-01T04:36:18.353Z,27.67
2022-10-01T04:38:45.656Z,20.17
2022-10-01T04:41:14.568Z,17.67
2022-10-01T04:43:43.340Z,25.52
2022-10-01T04:46:10.709Z,25.48
2022-10-01T04:48:37.958Z,18.20
2022-10-01T04:51:05.303Z,29.63
2022-10-01T04:53:32.602Z,25.30
2022-10-01T04:55:59.827Z,29.55
2022-10-01T04:58:27.076Z,23.05
2022-10-01T05:01:01.007Z,27.70
2022-10-01T05:03:29.230Z,33.05
2022-10-01T05:05:56.559Z,18.20
2022-10-01T05:08:23.838Z,18.05
2022-10-01T05:10:51.091Z,24.35
2022-10-01T05:13:18.303Z,21.48
2022-10-01T05:15:45.504Z,18.77
2022-10-01T05:18:14.146Z,21.00
2022-10-01T05:20:41.312Z,13.57
2022-10-01T05:23:08.678Z,13.63
2022-10-01T05:25:35.842Z,19.73
2022-10-01T05:28:06.599Z,13.35
2022-10-01T05:30:34.503Z,13.20
2022-10-01T05:33:03.510Z,13.52
2022-10-01T05:35:32.495Z,13.30
2022-10-01T05:38:02.878Z,12.25
2022-10-01T05:40:31.036Z,8.23
2022-10-01T05:42:59.750Z,13.80
2022-10-01T05:45:27.794Z,12.52
2022-10-01T05:47:59.827Z,12.35
2022-10-01T05:50:27.735Z,12.98
2022-10-01T05:52:56.279Z,16.55
2022-10-01T05:55:24.406Z,12.85
2022-10-01T05:57:55.743Z,12.65
2022-10-01T06:00:23.505Z,11.98
2022-10-01T06:02:52.281Z,9.15
2022-10-01T06:05:20.035Z,11.57
2022-10-01T06:07:47.565Z,12.32
2022-10-01T06:10:17.044Z,10.98
2022-10-01T06:12:44.917Z,10.80
2022-10-01T06:15:13.393Z,11.30
2022-10-01T06:17:45.038Z,10.77
2022-10-01T06:20:13.828Z,11.70
2022-10-01T06:22:43.070Z,11.45
2022-10-01T06:25:11.181Z,9.30
2022-10-01T06:27:39.856Z,10.40
2022-10-01T06:30:08.224Z,10.45
2022-10-01T06:32:35.686Z,9.98
2022-10-01T06:35:03.045Z,14.32
2022-10-01T06:37:30.573Z,11.52
2022-10-01T06:39:57.832Z,11.82
2022-10-01T06:42:25.209Z,12.60
2022-10-01T06:44:53.798Z,12.68
2022-10-01T06:47:21.113Z,10.82
2022-10-01T06:49:48.459Z,14.55
2022-10-01T06:52:34.420Z,12.45
2022-10-01T06:55:01.749Z,12.75
2022-10-01T06:57:30.060Z,13.00
2022-10-01T06:59:59.607Z,14.55
2022-10-01T07:02:29.137Z,9.18
2022-10-01T07:04:59.092Z,10.13
2022-10-01T07:07:30.155Z,12.45
2022-10-01T07:09:57.924Z,12.25
2022-10-01T07:12:25.378Z,13.30
2022-10-01T07:14:52.565Z,14.05
2022-10-01T07:17:21.596Z,15.32
2022-10-01T07:19:48.841Z,15.45
2022-10-01T07:22:16.126Z,9.88
2022-10-01T07:24:43.656Z,11.52
2022-10-01T07:27:10.914Z,14.52
2022-10-01T07:29:38.211Z,14.20
2022-10-01T07:32:09.033Z,15.55
2022-10-01T07:34:42.681Z,11.55
2022-10-01T07:37:10.478Z,15.43
2022-10-01T07:39:38.031Z,13.95
2022-10-01T07:42:06.022Z,13.40
2022-10-01T07:44:34.043Z,13.65
2022-10-01T07:47:01.344Z,16.17
2022-10-01T07:49:28.793Z,12.73
2022-10-01T07:51:59.069Z,14.98
2022-10-01T07:54:26.584Z,12.93
2022-10-01T07:56:56.001Z,13.30
2022-10-01T07:59:23.480Z,14.63
2022-10-01T08:01:51.934Z,13.85
2022-10-01T08:04:38.032Z,12.48
2022-10-01T08:07:08.412Z,12.30
2022-10-01T08:09:38.039Z,10.93
2022-10-01T08:12:05.225Z,12.68
2022-10-01T08:14:32.623Z,10.48
2022-10-01T08:16:59.893Z,11.23
2022-10-01T08:19:27.231Z,11.40
2022-10-01T08:21:54.545Z,8.48
2022-10-01T08:24:23.210Z,11.98
2022-10-01T08:26:56.076Z,11.57
2022-10-01T08:29:23.516Z,10.60
2022-10-01T08:31:50.920Z,10.18
2022-10-01T08:34:18.534Z,12.07
2022-10-01T08:36:45.912Z,11.05
2022-10-01T08:39:14.946Z,12.05
2022-10-01T08:41:55.039Z,14.88
2022-10-01T08:44:28.635Z,13.23
2022-10-01T08:47:12.005Z,13.73
2022-10-01T08:49:44.890Z,12.25
2022-10-01T08:52:19.003Z,12.05
2022-10-01T08:54:51.889Z,14.23
2022-10-01T08:57:25.774Z,12.77
2022-10-01T08:59:56.246Z,14.98
2022-10-01T09:02:25.924Z,15.65
2022-10-01T09:05:01.029Z,14.43
2022-10-01T09:07:53.533Z,14.23
2022-10-01T09:10:28.140Z,14.18
2022-10-01T09:13:14.348Z,13.27
2022-10-01T09:15:50.366Z,15.75
2022-10-01T09:18:27.132Z,14.05
2022-10-01T09:20:57.893Z,14.32
2022-10-01T09:23:29.361Z,16.42
2022-10-01T09:25:59.762Z,14.35
2022-10-01T09:28:31.835Z,17.33
2022-10-01T09:33:31.765Z,13.85
2022-10-01T09:36:06.149Z,14.32
2022-10-01T09:38:38.730Z,16.95
2022-10-01T09:41:08.386Z,14.48
2022-10-01T09:43:38.614Z,16.83
2022-10-01T09:46:13.455Z,15.35
2022-10-01T09:48:49.496Z,17.60
2022-10-01T09:51:19.451Z,15.85
2022-10-01T09:54:01.309Z,17.25
2022-10-01T09:56:34.201Z,15.57
2022-10-01T09:59:08.091Z,14.93
2022-10-01T10:01:43.606Z,17.33
2022-10-01T10:04:11.410Z,16.15
2022-10-01T10:06:39.377Z,15.43
2022-10-01T10:09:16.703Z,14.85
2022-10-01T10:11:45.623Z,14.70
2022-10-01T10:14:18.405Z,17.45
2022-10-01T10:16:47.898Z,15.80
2022-10-01T10:19:22.554Z,14.30
2022-10-01T10:21:52.258Z,16.15
2022-10-01T10:24:26.629Z,15.18
2022-10-01T10:26:56.661Z,16.95
2022-10-01T10:29:31.163Z,16.90
2022-10-01T10:32:00.092Z,14.25
2022-10-01T10:34:33.003Z,17.13
2022-10-01T10:37:05.307Z,15.52
2022-10-01T10:39:35.674Z,16.17
2022-10-01T10:42:05.016Z,16.73
2022-10-01T10:44:38.940Z,13.98
2022-10-01T10:47:11.451Z,14.23
2022-10-01T10:49:45.808Z,15.02
2022-10-01T10:52:21.317Z,16.20
2022-10-01T10:54:51.666Z,14.85
2022-10-01T10:57:21.466Z,13.95
2022-10-01T10:59:58.953Z,13.75
2022-10-01T11:02:30.098Z,14.13
2022-10-01T11:04:59.670Z,12.10
2022-10-01T11:07:27.916Z,11.43
2022-10-01T11:10:15.592Z,9.15
2022-10-01T11:12:58.842Z,8.18
2022-10-01T11:15:46.377Z,10.55
2022-10-01T11:18:29.767Z,10.02
2022-10-01T11:21:23.062Z,10.15
2022-10-01T11:24:15.214Z,9.80
2022-10-01T11:26:53.569Z,9.43
2022-10-01T11:29:36.143Z,8.68
2022-10-01T11:32:17.516Z,7.75
2022-10-01T11:35:03.865Z,8.13
2022-10-01T11:37:52.211Z,7.72
2022-10-01T11:40:25.042Z,6.35
2022-10-01T11:42:58.522Z,6.63
2022-10-01T11:45:28.874Z,7.00
2022-10-01T11:48:00.901Z,7.88
2022-10-01T11:53:01.568Z,4.53
2022-10-01T11:55:53.589Z,3.35
2022-10-01T11:58:49.315Z,5.05
2022-10-01T12:01:25.800Z,6.57
2022-10-01T12:04:05.673Z,4.85
2022-10-01T12:06:38.367Z,6.07
2022-10-01T12:09:14.297Z,5.40
2022-10-01T12:11:52.866Z,5.45
2022-10-01T12:14:25.117Z,6.18
2022-10-01T12:16:56.864Z,5.13
2022-10-01T12:19:28.810Z,4.15
2022-10-01T12:22:00.009Z,5.28
2022-10-01T12:24:30.313Z,4.90
2022-10-01T12:27:07.649Z,4.95
2022-10-01T12:29:45.113Z,4.55
2022-10-01T12:32:22.274Z,5.38
2022-10-01T12:34:59.989Z,3.60
2022-10-01T12:37:44.442Z,5.10
2022-10-01T12:40:26.608Z,5.45
2022-10-01T12:43:09.029Z,4.30
2022-10-01T12:45:50.334Z,5.10
2022-10-01T12:48:24.071Z,4.55
2022-10-01T12:51:04.785Z,4.13
2022-10-01T12:53:38.921Z,4.40
2022-10-01T12:56:17.115Z,4.22
2022-10-01T12:59:06.539Z,4.63
2022-10-01T13:01:52.802Z,4.07
2022-10-01T13:04:58.923Z,4.18
2022-10-01T13:07:46.963Z,3.45
2022-10-01T13:10:24.706Z,3.40
2022-10-01T13:13:02.076Z,3.70
2022-10-01T13:15:32.903Z,3.42
2022-10-01T13:18:09.427Z,3.20
2022-10-01T13:20:41.264Z,3.08
2022-10-01T13:25:50.975Z,3.58
2022-10-01T13:28:26.798Z,2.80
2022-10-01T13:31:00.276Z,2.80
2022-10-01T13:33:29.867Z,2.45
2022-10-01T13:35:59.482Z,1.92
2022-10-01T13:38:30.797Z,2.13
2022-10-01T13:41:01.887Z,2.67
2022-10-01T13:43:30.951Z,2.60
2022-10-01T13:46:07.224Z,2.95
2022-10-01T13:48:37.214Z,2.72
2022-10-01T13:51:09.279Z,3.00
2022-10-01T13:53:47.542Z,2.95
2022-10-01T13:56:28.896Z,3.00
2022-10-01T13:58:56.189Z,3.15
2022-10-01T14:01:30.257Z,3.90
2022-10-01T14:04:05.652Z,2.85
2022-10-01T14:06:42.806Z,2.70
2022-10-01T14:09:15.432Z,2.78
2022-10-01T14:12:03.652Z,2.80
2022-10-01T14:14:54.554Z,5.15
2022-10-01T14:17:24.937Z,3.25
2022-10-01T14:19:52.836Z,2.63
2022-10-01T14:22:34.742Z,2.85
2022-10-01T14:25:15.757Z,3.85
2022-10-01T14:27:48.432Z,3.78
2022-10-01T14:30:19.929Z,2.40
2022-10-01T14:33:16.876Z,2.92
2022-10-01T14:35:53.958Z,3.20
2022-10-01T14:38:22.784Z,3.00
2022-10-01T14:40:53.475Z,3.88
2022-10-01T14:43:22.913Z,3.35
2022-10-01T14:45:54.866Z,6.07
2022-10-01T14:50:53.737Z,3.50
2022-10-01T14:53:23.725Z,3.63
2022-10-01T14:55:55.574Z,3.08
2022-10-01T14:58:27.595Z,4.20
2022-10-01T15:00:56.855Z,3.38
2022-10-01T15:03:24.884Z,3.72
2022-10-01T15:06:03.539Z,3.38
2022-10-01T15:08:38.965Z,3.70
2022-10-01T15:11:12.369Z,4.00
2022-10-01T15:13:42.358Z,4.10
2022-10-01T15:16:12.789Z,3.67
2022-10-01T15:18:46.647Z,3.67
2022-10-01T15:21:19.166Z,4.30
2022-10-01T15:23:47.879Z,4.25
2022-10-01T15:26:21.037Z,4.07
2022-10-01T15:28:48.302Z,4.50
2022-10-01T15:31:16.941Z,4.03
2022-10-01T15:33:44.682Z,4.28
2022-10-01T15:36:15.570Z,4.50
2022-10-01T15:38:44.550Z,4.05
2022-10-01T15:41:31.657Z,5.28
2022-10-01T15:44:04.220Z,5.28
2022-10-01T15:49:17.600Z,4.43
2022-10-01T15:52:11.190Z,4.95
2022-10-01T15:54:40.536Z,6.60
2022-10-01T15:57:10.326Z,6.07
2022-10-01T15:59:40.665Z,8.32
2022-10-01T16:02:10.439Z,8.35
2022-10-01T16:04:37.803Z,8.48
2022-10-01T16:07:05.244Z,9.20
2022-10-01T16:09:32.452Z,9.50
2022-10-01T16:12:04.064Z,8.95
2022-10-01T16:14:37.370Z,9.27
2022-10-01T16:17:30.434Z,8.10
2022-10-01T16:19:59.846Z,8.10
2022-10-01T16:22:30.109Z,9.50
2022-10-01T16:24:58.892Z,8.95
2022-10-01T16:27:28.310Z,10.38
2022-10-01T16:30:04.976Z,8.82
2022-10-01T16:32:32.963Z,9.45
2022-10-01T16:35:15.756Z,9.77
2022-10-01T16:37:43.580Z,8.85
2022-10-01T16:40:15.828Z,8.43
2022-10-01T16:42:44.290Z,7.25
2022-10-01T16:45:16.094Z,7.22
2022-10-01T16:47:43.510Z,7.60
2022-10-01T16:50:12.097Z,8.23
2022-10-01T16:52:40.291Z,7.00
2022-10-01T16:55:17.360Z,7.05
2022-10-01T16:57:44.713Z,5.30
2022-10-01T17:00:15.686Z,6.80
2022-10-01T17:02:42.912Z,5.72
2022-10-01T17:05:17.597Z,6.03
2022-10-01T17:07:45.389Z,5.30
2022-10-01T17:10:13.685Z,5.43
2022-10-01T17:12:41.261Z,6.10
2022-10-01T17:15:13.930Z,6.22
2022-10-01T17:17:42.616Z,7.47
2022-10-01T17:20:10.254Z,7.00
2022-10-01T17:22:39.149Z,7.43
2022-10-01T17:25:07.317Z,6.78
2022-10-01T17:27:34.727Z,7.45
2022-10-01T17:30:03.331Z,8.25
2022-10-01T17:32:32.972Z,8.63
2022-10-01T17:35:01.545Z,9.00
2022-10-01T17:37:29.704Z,8.57
2022-10-01T17:39:57.052Z,9.70
2022-10-01T17:42:24.220Z,10.52
2022-10-01T17:44:52.485Z,11.65
2022-10-01T17:47:19.617Z,12.13
2022-10-01T17:49:46.827Z,10.73
2022-10-01T17:52:15.633Z,11.77
2022-10-01T17:54:42.995Z,11.32
2022-10-01T17:57:10.987Z,12.07
2022-10-01T17:59:38.725Z,11.95
2022-10-01T18:02:23.674Z,11.40
2022-10-01T18:04:54.578Z,12.77
2022-10-01T18:07:24.508Z,13.20
2022-10-01T18:09:53.484Z,12.52
2022-10-01T18:12:20.744Z,13.32
2022-10-01T18:14:49.904Z,13.13
2022-10-01T18:17:17.472Z,12.57
2022-10-01T18:19:53.472Z,12.60
2022-10-01T18:22:21.332Z,11.73
2022-10-01T18:24:50.090Z,12.27
2022-10-01T18:27:17.485Z,13.02
2022-10-01T18:29:44.973Z,13.65
2022-10-01T18:32:16.532Z,10.98
2022-10-01T18:34:49.948Z,13.68
2022-10-01T18:37:26.700Z,13.27
2022-10-01T18:40:00.264Z,13.50
2022-10-01T18:42:38.145Z,13.55
2022-10-01T18:45:13.469Z,9.02
2022-10-01T18:47:50.769Z,12.32
2022-10-01T18:50:28.167Z,9.90
2022-10-01T18:53:11.039Z,10.30
2022-10-01T18:56:03.326Z,7.68
2022-10-01T18:58:53.178Z,6.93
2022-10-01T19:01:28.214Z,9.93
2022-10-01T19:04:27.590Z,9.82
2022-10-01T19:07:09.754Z,7.53
2022-10-01T19:09:47.893Z,5.65
2022-10-01T19:12:30.633Z,8.20
2022-10-01T19:15:16.884Z,7.38
2022-10-01T19:18:09.479Z,9.55
2022-10-01T19:20:52.824Z,4.57
2022-10-01T19:23:40.370Z,5.20
2022-10-01T19:26:13.476Z,4.03
2022-10-01T19:28:58.472Z,2.88
2022-10-01T19:31:34.192Z,4.05
2022-10-01T19:34:09.904Z,3.50
2022-10-01T19:36:41.661Z,4.50
2022-10-01T19:39:14.985Z,7.57
2022-10-01T19:41:47.518Z,6.93
2022-10-01T19:44:20.905Z,2.65
2022-10-01T19:46:50.279Z,5.95
2022-10-01T19:49:22.858Z,5.45
2022-10-01T19:51:57.479Z,5.40
2022-10-01T19:54:30.743Z,6.25
2022-10-01T19:57:06.817Z,6.88
2022-10-01T19:59:35.615Z,5.88
2022-10-01T20:02:13.629Z,3.28
2022-10-01T20:04:51.851Z,5.57
2022-10-01T20:07:24.312Z,6.60
2022-10-01T20:09:59.479Z,5.60
2022-10-01T20:15:20.203Z,7.75
2022-10-01T20:17:59.890Z,8.88
2022-10-01T20:20:36.135Z,7.60
2022-10-01T20:23:20.072Z,8.23
2022-10-01T20:25:54.505Z,7.15
2022-10-01T20:28:27.802Z,8.57
2022-10-01T20:31:05.765Z,7.40
2022-10-01T20:33:43.238Z,7.18
2022-10-01T20:36:17.304Z,6.28
2022-10-01T20:38:49.833Z,7.35
2022-10-01T20:41:20.086Z,7.10
2022-10-01T20:43:51.385Z,6.25
2022-10-01T20:46:25.286Z,3.42
2022-10-01T20:48:58.451Z,6.43
2022-10-01T20:51:35.361Z,5.70
2022-10-01T20:54:07.553Z,6.30
2022-10-01T20:56:38.937Z,6.05
2022-10-01T20:59:11.806Z,3.53
2022-10-01T21:01:47.037Z,5.57
2022-10-01T21:04:18.573Z,4.40
2022-10-01T21:06:49.155Z,4.40
2022-10-01T21:09:22.819Z,2.40
2022-10-01T21:11:56.543Z,4.75
2022-10-01T21:14:28.328Z,5.40
2022-10-01T21:17:15.832Z,3.03
2022-10-01T21:20:02.751Z,5.50
2022-10-01T21:22:47.897Z,3.55
2022-10-01T21:25:20.869Z,3.10
2022-10-01T21:28:18.788Z,5.63
2022-10-01T21:31:02.512Z,3.72
2022-10-01T21:33:34.941Z,4.95
2022-10-01T21:36:07.537Z,3.50
2022-10-01T21:38:43.343Z,5.38
2022-10-01T21:41:24.288Z,2.35
2022-10-01T21:44:30.035Z,4.10
2022-10-01T21:47:03.398Z,3.65
2022-10-01T21:49:47.167Z,5.05
2022-10-01T21:52:25.793Z,2.72
2022-10-01T21:55:17.955Z,5.00
2022-10-01T21:58:08.463Z,3.58
2022-10-01T22:00:36.083Z,4.88
2022-10-01T22:03:11.849Z,4.20
2022-10-01T22:05:50.383Z,3.33
2022-10-01T22:08:48.501Z,4.75
2022-10-01T22:11:19.542Z,4.30
2022-10-01T22:13:51.599Z,4.72
2022-10-01T22:16:20.194Z,3.55
2022-10-01T22:18:51.736Z,2.50
2022-10-01T22:21:25.005Z,2.35
2022-10-01T22:23:59.180Z,2.65
2022-10-01T22:26:30.783Z,5.15
2022-10-01T22:29:02.120Z,3.10
2022-10-01T22:31:33.801Z,3.42
2022-10-01T22:34:05.675Z,2.13
2022-10-01T22:36:40.784Z,4.63
2022-10-01T22:39:13.547Z,3.60
2022-10-01T22:41:46.158Z,1.98
2022-10-01T22:44:15.365Z,3.00
2022-10-01T22:47:01.084Z,2.05
2022-10-01T22:49:44.356Z,2.30
2022-10-01T22:52:23.999Z,3.20
2022-10-01T22:55:03.287Z,3.38
2022-10-01T22:57:53.736Z,1.45
2022-10-01T23:00:21.517Z,3.35
2022-10-01T23:02:59.787Z,2.88
2022-10-01T23:05:46.281Z,3.65
2022-10-01T23:08:24.313Z,1.83
2022-10-01T23:11:02.487Z,1.00
2022-10-01T23:13:37.860Z,1.23
2022-10-01T23:16:14.737Z,2.20
2022-10-01T23:18:51.870Z,3.05
2022-10-01T23:21:33.884Z,1.85
2022-10-01T23:24:14.220Z,2.58
2022-10-01T23:26:53.259Z,2.13
2022-10-01T23:29:49.199Z,2.25
2022-10-01T23:32:28.997Z,1.45
2022-10-01T23:35:04.995Z,2.53
2022-10-01T23:37:50.423Z,1.70
2022-10-01T23:42:59.092Z,2.25
2022-10-01T23:45:30.686Z,2.78
2022-10-01T23:48:06.003Z,1.15
2022-10-01T23:50:40.090Z,1.85
2022-10-01T23:53:14.932Z,2.25
2022-10-01T23:56:08.372Z,0.93
2022-10-01T23:58:43.849Z,2.78
